sensor_id;sensor_type;location;lat;lon;timestamp;P1;durP1;ratioP1;P2;durP2;ratioP2
78426;SDS011;67722;50.204;8.570;2023-04-01T00:01:53;2.95;;;0.82;;
78426;SDS011;67722;50.204;8.570;2023-04-01T00:04:19;3.50;;;0.55;;
78426;SDS011;67722;50.204;8.570;2023-04-01T00:06:45;4.40;;;0.70;;
78426;SDS011;67722;50.204;8.570;2023-04-01T00:09:12;3.03;;;0.73;;
78426;SDS011;67722;50.204;8.570;2023-04-01T00:11:37;7.15;;;1.20;;
78426;SDS011;67722;50.204;8.570;2023-04-01T00:14:03;3.03;;;0.90;;
78426;SDS011;67722;50.204;8.570;2023-04-01T00:16:29;2.25;;;0.52;;
78426;SDS011;67722;50.204;8.570;2023-04-01T00:18:55;3.30;;;0.45;;
78426;SDS011;67722;50.204;8.570;2023-04-01T00:21:20;2.10;;;0.90;;
78426;SDS011;67722;50.204;8.570;2023-04-01T00:23:47;4.97;;;0.60;;
78426;SDS011;67722;50.204;8.570;2023-04-01T00:26:13;4.82;;;0.68;;
78426;SDS011;67722;50.204;8.570;2023-04-01T00:28:40;5.53;;;0.60;;
78426;SDS011;67722;50.204;8.570;2023-04-01T00:31:06;1.77;;;0.50;;
78426;SDS011;67722;50.204;8.570;2023-04-01T00:33:32;3.47;;;0.75;;
78426;SDS011;67722;50.204;8.570;2023-04-01T00:36:05;2.13;;;0.75;;
78426;SDS011;67722;50.204;8.570;2023-04-01T00:38:31;4.22;;;1.00;;
78426;SDS011;67722;50.204;8.570;2023-04-01T00:40:57;3.53;;;0.57;;
78426;SDS011;67722;50.204;8.570;2023-04-01T00:43:23;5.75;;;0.70;;
78426;SDS011;67722;50.204;8.570;2023-04-01T00:45:48;4.77;;;1.20;;
78426;SDS011;67722;50.204;8.570;2023-04-01T00:48:22;4.28;;;0.57;;
78426;SDS011;67722;50.204;8.570;2023-04-01T00:50:51;3.95;;;0.70;;
78426;SDS011;67722;50.204;8.570;2023-04-01T00:53:19;2.72;;;1.30;;
78426;SDS011;67722;50.204;8.570;2023-04-01T00:55:47;2.95;;;0.80;;
78426;SDS011;67722;50.204;8.570;2023-04-01T00:58:16;1.00;;;0.70;;
78426;SDS011;67722;50.204;8.570;2023-04-01T01:00:44;2.78;;;1.17;;
78426;SDS011;67722;50.204;8.570;2023-04-01T01:03:10;4.03;;;0.80;;
78426;SDS011;67722;50.204;8.570;2023-04-01T01:10:48;2.75;;;0.70;;
78426;SDS011;67722;50.204;8.570;2023-04-01T01:13:21;1.42;;;0.50;;
78426;SDS011;67722;50.204;8.570;2023-04-01T01:37:17;2.78;;;0.70;;
78426;SDS011;67722;50.204;8.570;2023-04-01T01:39:52;3.97;;;0.60;;
78426;SDS011;67722;50.204;8.570;2023-04-01T01:42:20;4.75;;;0.75;;
78426;SDS011;67722;50.204;8.570;2023-04-01T01:44:48;3.55;;;0.60;;
78426;SDS011;67722;50.204;8.570;2023-04-01T01:47:15;0.95;;;0.40;;
78426;SDS011;67722;50.204;8.570;2023-04-01T01:49:40;4.00;;;0.63;;
78426;SDS011;67722;50.204;8.570;2023-04-01T01:52:07;3.97;;;0.50;;
78426;SDS011;67722;50.204;8.570;2023-04-01T01:54:32;1.60;;;0.50;;
78426;SDS011;67722;50.204;8.570;2023-04-01T01:57:03;5.40;;;0.77;;
78426;SDS011;67722;50.204;8.570;2023-04-01T01:59:31;2.75;;;1.40;;
78426;SDS011;67722;50.204;8.570;2023-04-01T02:01:58;2.00;;;0.68;;
78426;SDS011;67722;50.204;8.570;2023-04-01T02:04:24;3.17;;;0.70;;
78426;SDS011;67722;50.204;8.570;2023-04-01T02:06:58;1.88;;;0.50;;
78426;SDS011;67722;50.204;8.570;2023-04-01T02:09:25;3.45;;;0.52;;
78426;SDS011;67722;50.204;8.570;2023-04-01T02:11:59;3.08;;;1.13;;
78426;SDS011;67722;50.204;8.570;2023-04-01T02:14:34;3.10;;;1.17;;
78426;SDS011;67722;50.204;8.570;2023-04-01T02:17:09;4.57;;;0.65;;
78426;SDS011;67722;50.204;8.570;2023-04-01T02:19:37;5.38;;;0.82;;
78426;SDS011;67722;50.204;8.570;2023-04-01T02:22:13;2.05;;;0.50;;
78426;SDS011;67722;50.204;8.570;2023-04-01T02:24:40;3.90;;;0.52;;
78426;SDS011;67722;50.204;8.570;2023-04-01T02:27:06;2.75;;;0.38;;
78426;SDS011;67722;50.204;8.570;2023-04-01T02:29:32;3.85;;;0.52;;
78426;SDS011;67722;50.204;8.570;2023-04-01T02:31:57;1.90;;;0.30;;
78426;SDS011;67722;50.204;8.570;2023-04-01T02:34:24;1.85;;;0.30;;
78426;SDS011;67722;50.204;8.570;2023-04-01T02:36:50;3.45;;;0.57;;
78426;SDS011;67722;50.204;8.570;2023-04-01T02:39:15;1.55;;;1.15;;
78426;SDS011;67722;50.204;8.570;2023-04-01T02:41:42;6.80;;;0.73;;
78426;SDS011;67722;50.204;8.570;2023-04-01T02:44:09;3.75;;;0.50;;
78426;SDS011;67722;50.204;8.570;2023-04-01T02:46:35;3.15;;;0.55;;
78426;SDS011;67722;50.204;8.570;2023-04-01T02:49:01;0.97;;;0.40;;
78426;SDS011;67722;50.204;8.570;2023-04-01T02:51:26;2.17;;;0.30;;
78426;SDS011;67722;50.204;8.570;2023-04-01T02:53:51;2.50;;;0.57;;
78426;SDS011;67722;50.204;8.570;2023-04-01T02:56:17;1.63;;;0.35;;
78426;SDS011;67722;50.204;8.570;2023-04-01T02:58:43;3.33;;;0.65;;
78426;SDS011;67722;50.204;8.570;2023-04-01T03:01:08;2.73;;;0.50;;
78426;SDS011;67722;50.204;8.570;2023-04-01T03:03:33;2.10;;;0.40;;
78426;SDS011;67722;50.204;8.570;2023-04-01T03:06:04;2.27;;;0.60;;
78426;SDS011;67722;50.204;8.570;2023-04-01T03:08:32;2.13;;;0.50;;
78426;SDS011;67722;50.204;8.570;2023-04-01T03:10:57;3.77;;;0.60;;
78426;SDS011;67722;50.204;8.570;2023-04-01T03:13:23;3.13;;;0.60;;
78426;SDS011;67722;50.204;8.570;2023-04-01T03:15:48;1.60;;;0.40;;
78426;SDS011;67722;50.204;8.570;2023-04-01T03:18:13;2.35;;;0.60;;
78426;SDS011;67722;50.204;8.570;2023-04-01T03:20:39;2.45;;;0.43;;
78426;SDS011;67722;50.204;8.570;2023-04-01T03:23:04;1.87;;;0.43;;
78426;SDS011;67722;50.204;8.570;2023-04-01T03:25:29;4.37;;;1.33;;
78426;SDS011;67722;50.204;8.570;2023-04-01T03:27:55;2.20;;;0.43;;
78426;SDS011;67722;50.204;8.570;2023-04-01T03:30:21;3.05;;;0.45;;
78426;SDS011;67722;50.204;8.570;2023-04-01T03:32:46;1.30;;;0.27;;
78426;SDS011;67722;50.204;8.570;2023-04-01T03:35:11;3.20;;;0.40;;
78426;SDS011;67722;50.204;8.570;2023-04-01T03:37:37;1.88;;;0.40;;
78426;SDS011;67722;50.204;8.570;2023-04-01T03:40:02;4.00;;;0.55;;
78426;SDS011;67722;50.204;8.570;2023-04-01T03:42:29;3.67;;;0.90;;
78426;SDS011;67722;50.204;8.570;2023-04-01T03:44:56;4.32;;;1.13;;
78426;SDS011;67722;50.204;8.570;2023-04-01T03:47:21;2.85;;;0.60;;
78426;SDS011;67722;50.204;8.570;2023-04-01T03:49:46;4.73;;;0.80;;
78426;SDS011;67722;50.204;8.570;2023-04-01T03:52:12;5.10;;;0.47;;
78426;SDS011;67722;50.204;8.570;2023-04-01T03:54:37;1.77;;;0.40;;
78426;SDS011;67722;50.204;8.570;2023-04-01T03:57:03;1.83;;;0.30;;
78426;SDS011;67722;50.204;8.570;2023-04-01T03:59:28;5.03;;;0.52;;
78426;SDS011;67722;50.204;8.570;2023-04-01T04:01:53;2.87;;;0.50;;
78426;SDS011;67722;50.204;8.570;2023-04-01T04:04:19;1.87;;;0.70;;
78426;SDS011;67722;50.204;8.570;2023-04-01T04:06:44;1.90;;;0.43;;
78426;SDS011;67722;50.204;8.570;2023-04-01T04:09:10;2.37;;;0.50;;
78426;SDS011;67722;50.204;8.570;2023-04-01T04:11:35;2.67;;;0.50;;
78426;SDS011;67722;50.204;8.570;2023-04-01T04:14:01;3.60;;;0.80;;
78426;SDS011;67722;50.204;8.570;2023-04-01T04:16:27;2.78;;;0.60;;
78426;SDS011;67722;50.204;8.570;2023-04-01T04:18:52;2.97;;;0.90;;
78426;SDS011;67722;50.204;8.570;2023-04-01T04:21:18;3.58;;;0.82;;
78426;SDS011;67722;50.204;8.570;2023-04-01T04:23:43;3.60;;;0.60;;
78426;SDS011;67722;50.204;8.570;2023-04-01T04:26:10;6.57;;;1.27;;
78426;SDS011;67722;50.204;8.570;2023-04-01T04:28:36;4.32;;;1.08;;
78426;SDS011;67722;50.204;8.570;2023-04-01T04:31:02;2.10;;;0.60;;
78426;SDS011;67722;50.204;8.570;2023-04-01T04:33:29;2.78;;;0.70;;
78426;SDS011;67722;50.204;8.570;2023-04-01T04:35:55;9.70;;;1.20;;
78426;SDS011;67722;50.204;8.570;2023-04-01T04:38:21;4.28;;;0.95;;
78426;SDS011;67722;50.204;8.570;2023-04-01T04:40:47;4.10;;;0.75;;
78426;SDS011;67722;50.204;8.570;2023-04-01T04:43:13;3.17;;;0.50;;
78426;SDS011;67722;50.204;8.570;2023-04-01T04:45:39;3.25;;;0.75;;
78426;SDS011;67722;50.204;8.570;2023-04-01T04:48:06;3.22;;;0.60;;
78426;SDS011;67722;50.204;8.570;2023-04-01T04:50:33;1.23;;;0.52;;
78426;SDS011;67722;50.204;8.570;2023-04-01T04:52:58;3.00;;;0.60;;
78426;SDS011;67722;50.204;8.570;2023-04-01T04:55:23;5.87;;;0.60;;
78426;SDS011;67722;50.204;8.570;2023-04-01T04:57:49;3.75;;;0.98;;
78426;SDS011;67722;50.204;8.570;2023-04-01T05:00:14;2.03;;;0.28;;
78426;SDS011;67722;50.204;8.570;2023-04-01T05:02:40;3.70;;;0.60;;
78426;SDS011;67722;50.204;8.570;2023-04-01T05:05:05;4.35;;;0.70;;
78426;SDS011;67722;50.204;8.570;2023-04-01T05:07:31;3.75;;;1.13;;
78426;SDS011;67722;50.204;8.570;2023-04-01T05:09:56;3.17;;;0.85;;
78426;SDS011;67722;50.204;8.570;2023-04-01T05:12:22;3.67;;;1.00;;
78426;SDS011;67722;50.204;8.570;2023-04-01T05:14:47;6.27;;;1.03;;
78426;SDS011;67722;50.204;8.570;2023-04-01T05:17:12;4.07;;;1.08;;
78426;SDS011;67722;50.204;8.570;2023-04-01T05:19:38;3.97;;;0.80;;
78426;SDS011;67722;50.204;8.570;2023-04-01T05:22:03;5.22;;;0.68;;
78426;SDS011;67722;50.204;8.570;2023-04-01T05:24:29;5.35;;;0.65;;
78426;SDS011;67722;50.204;8.570;2023-04-01T05:26:55;6.38;;;0.70;;
78426;SDS011;67722;50.204;8.570;2023-04-01T05:29:21;4.22;;;0.77;;
78426;SDS011;67722;50.204;8.570;2023-04-01T05:31:46;3.77;;;1.50;;
78426;SDS011;67722;50.204;8.570;2023-04-01T05:34:11;1.13;;;0.37;;
78426;SDS011;67722;50.204;8.570;2023-04-01T05:36:38;1.95;;;0.70;;
78426;SDS011;67722;50.204;8.570;2023-04-01T05:39:03;3.22;;;1.20;;
78426;SDS011;67722;50.204;8.570;2023-04-01T05:41:28;5.90;;;0.65;;
78426;SDS011;67722;50.204;8.570;2023-04-01T05:43:54;1.95;;;0.35;;
78426;SDS011;67722;50.204;8.570;2023-04-01T05:46:20;2.40;;;0.47;;
78426;SDS011;67722;50.204;8.570;2023-04-01T05:48:45;3.97;;;0.40;;
78426;SDS011;67722;50.204;8.570;2023-04-01T05:51:14;2.40;;;0.30;;
78426;SDS011;67722;50.204;8.570;2023-04-01T05:53:40;8.18;;;0.65;;
78426;SDS011;67722;50.204;8.570;2023-04-01T05:56:05;3.35;;;0.77;;
78426;SDS011;67722;50.204;8.570;2023-04-01T05:58:33;2.80;;;0.70;;
78426;SDS011;67722;50.204;8.570;2023-04-01T06:01:09;4.13;;;0.60;;
78426;SDS011;67722;50.204;8.570;2023-04-01T06:03:35;2.22;;;0.40;;
78426;SDS011;67722;50.204;8.570;2023-04-01T06:06:01;1.70;;;0.55;;
78426;SDS011;67722;50.204;8.570;2023-04-01T06:08:27;4.43;;;0.73;;
78426;SDS011;67722;50.204;8.570;2023-04-01T06:11:12;2.35;;;0.50;;
78426;SDS011;67722;50.204;8.570;2023-04-01T06:24:28;3.60;;;0.57;;
78426;SDS011;67722;50.204;8.570;2023-04-01T06:27:13;1.05;;;0.43;;
78426;SDS011;67722;50.204;8.570;2023-04-01T06:32:53;4.03;;;0.30;;
78426;SDS011;67722;50.204;8.570;2023-04-01T06:38:17;2.53;;;0.50;;
78426;SDS011;67722;50.204;8.570;2023-04-01T06:46:33;0.70;;;0.22;;
78426;SDS011;67722;50.204;8.570;2023-04-01T06:54:32;0.80;;;0.15;;
78426;SDS011;67722;50.204;8.570;2023-04-01T07:02:48;2.80;;;0.60;;
78426;SDS011;67722;50.204;8.570;2023-04-01T07:05:18;3.05;;;0.88;;
78426;SDS011;67722;50.204;8.570;2023-04-01T07:07:45;0.63;;;0.40;;
78426;SDS011;67722;50.204;8.570;2023-04-01T07:10:23;1.90;;;0.40;;
78426;SDS011;67722;50.204;8.570;2023-04-01T07:12:56;1.13;;;0.20;;
78426;SDS011;67722;50.204;8.570;2023-04-01T07:15:25;3.38;;;0.40;;
78426;SDS011;67722;50.204;8.570;2023-04-01T07:18:01;2.47;;;0.30;;
78426;SDS011;67722;50.204;8.570;2023-04-01T07:20:29;1.08;;;0.85;;
78426;SDS011;67722;50.204;8.570;2023-04-01T07:22:56;1.10;;;0.20;;
78426;SDS011;67722;50.204;8.570;2023-04-01T07:25:43;1.10;;;0.17;;
78426;SDS011;67722;50.204;8.570;2023-04-01T07:28:13;0.47;;;0.17;;
78426;SDS011;67722;50.204;8.570;2023-04-01T07:41:39;1.40;;;0.40;;
78426;SDS011;67722;50.204;8.570;2023-04-01T07:55:23;1.83;;;0.30;;
78426;SDS011;67722;50.204;8.570;2023-04-01T08:00:42;0.85;;;0.20;;
78426;SDS011;67722;50.204;8.570;2023-04-01T08:06:06;2.13;;;1.05;;
78426;SDS011;67722;50.204;8.570;2023-04-01T08:22:26;2.53;;;0.40;;
78426;SDS011;67722;50.204;8.570;2023-04-01T08:24:54;2.45;;;0.30;;
78426;SDS011;67722;50.204;8.570;2023-04-01T08:27:24;2.88;;;0.38;;
78426;SDS011;67722;50.204;8.570;2023-04-01T08:30:16;2.80;;;0.20;;
78426;SDS011;67722;50.204;8.570;2023-04-01T08:32:42;2.50;;;0.22;;
78426;SDS011;67722;50.204;8.570;2023-04-01T08:35:40;1.55;;;0.20;;
78426;SDS011;67722;50.204;8.570;2023-04-01T08:38:17;0.35;;;0.10;;
78426;SDS011;67722;50.204;8.570;2023-04-01T08:49:22;0.60;;;0.30;;
78426;SDS011;67722;50.204;8.570;2023-04-01T08:54:42;1.92;;;0.28;;
78426;SDS011;67722;50.204;8.570;2023-04-01T09:08:31;1.15;;;0.13;;
78426;SDS011;67722;50.204;8.570;2023-04-01T09:31:09;0.73;;;0.30;;
78426;SDS011;67722;50.204;8.570;2023-04-01T09:39:36;1.35;;;0.20;;
78426;SDS011;67722;50.204;8.570;2023-04-01T09:42:09;0.40;;;0.10;;
78426;SDS011;67722;50.204;8.570;2023-04-01T09:47:41;0.40;;;0.10;;
78426;SDS011;67722;50.204;8.570;2023-04-01T09:50:17;0.30;;;0.20;;
78426;SDS011;67722;50.204;8.570;2023-04-01T10:01:19;8.00;;;4.95;;
78426;SDS011;67722;50.204;8.570;2023-04-01T10:12:27;0.20;;;0.20;;
78426;SDS011;67722;50.204;8.570;2023-04-01T10:23:41;0.63;;;0.20;;
78426;SDS011;67722;50.204;8.570;2023-04-01T10:31:52;1.00;;;0.20;;
78426;SDS011;67722;50.204;8.570;2023-04-01T10:53:15;1.08;;;0.25;;
78426;SDS011;67722;50.204;8.570;2023-04-01T10:59:06;1.38;;;0.32;;
78426;SDS011;67722;50.204;8.570;2023-04-01T11:04:39;0.30;;;0.20;;
78426;SDS011;67722;50.204;8.570;2023-04-01T11:32:54;0.30;;;0.00;;
78426;SDS011;67722;50.204;8.570;2023-04-01T11:35:38;0.57;;;0.20;;
78426;SDS011;67722;50.204;8.570;2023-04-01T11:38:20;0.57;;;0.30;;
78426;SDS011;67722;50.204;8.570;2023-04-01T11:43:34;0.68;;;0.17;;
78426;SDS011;67722;50.204;8.570;2023-04-01T11:46:07;1.58;;;0.60;;
78426;SDS011;67722;50.204;8.570;2023-04-01T11:48:45;2.90;;;0.30;;
78426;SDS011;67722;50.204;8.570;2023-04-01T11:59:47;0.57;;;0.28;;
78426;SDS011;67722;50.204;8.570;2023-04-01T12:02:28;0.70;;;0.13;;
78426;SDS011;67722;50.204;8.570;2023-04-01T12:10:51;0.40;;;0.30;;
78426;SDS011;67722;50.204;8.570;2023-04-01T12:13:34;0.57;;;0.28;;
78426;SDS011;67722;50.204;8.570;2023-04-01T12:33:06;0.43;;;0.20;;
78426;SDS011;67722;50.204;8.570;2023-04-01T12:36:01;0.73;;;0.35;;
78426;SDS011;67722;50.204;8.570;2023-04-01T12:38:42;0.73;;;0.60;;
78426;SDS011;67722;50.204;8.570;2023-04-01T12:41:40;0.25;;;0.15;;
78426;SDS011;67722;50.204;8.570;2023-04-01T12:44:54;0.90;;;0.30;;
78426;SDS011;67722;50.204;8.570;2023-04-01T12:47:37;2.83;;;0.20;;
78426;SDS011;67722;50.204;8.570;2023-04-01T12:55:40;0.68;;;0.55;;
78426;SDS011;67722;50.204;8.570;2023-04-01T12:58:14;1.60;;;0.17;;
78426;SDS011;67722;50.204;8.570;2023-04-01T13:06:47;0.70;;;0.70;;
78426;SDS011;67722;50.204;8.570;2023-04-01T13:09:26;1.80;;;0.10;;
78426;SDS011;67722;50.204;8.570;2023-04-01T13:26:08;0.50;;;0.20;;
78426;SDS011;67722;50.204;8.570;2023-04-01T13:28:39;0.50;;;0.10;;
78426;SDS011;67722;50.204;8.570;2023-04-01T13:31:13;0.43;;;0.20;;
78426;SDS011;67722;50.204;8.570;2023-04-01T13:34:00;0.43;;;0.20;;
78426;SDS011;67722;50.204;8.570;2023-04-01T13:42:45;0.40;;;0.13;;
78426;SDS011;67722;50.204;8.570;2023-04-01T13:45:18;1.27;;;0.85;;
78426;SDS011;67722;50.204;8.570;2023-04-01T14:04:53;0.50;;;0.13;;
78426;SDS011;67722;50.204;8.570;2023-04-01T14:10:25;2.47;;;0.32;;
78426;SDS011;67722;50.204;8.570;2023-04-01T14:20:43;0.17;;;0.10;;
78426;SDS011;67722;50.204;8.570;2023-04-01T14:29:11;0.75;;;0.75;;
78426;SDS011;67722;50.204;8.570;2023-04-01T14:42:52;0.93;;;0.52;;
78426;SDS011;67722;50.204;8.570;2023-04-01T14:50:51;0.45;;;0.20;;
78426;SDS011;67722;50.204;8.570;2023-04-01T14:58:38;0.47;;;0.40;;
78426;SDS011;67722;50.204;8.570;2023-04-01T15:01:13;0.57;;;0.20;;
78426;SDS011;67722;50.204;8.570;2023-04-01T15:09:50;2.58;;;0.32;;
78426;SDS011;67722;50.204;8.570;2023-04-01T15:15:40;0.80;;;0.40;;
78426;SDS011;67722;50.204;8.570;2023-04-01T15:19:14;1.08;;;0.28;;
78426;SDS011;67722;50.204;8.570;2023-04-01T15:29:42;0.65;;;0.30;;
78426;SDS011;67722;50.204;8.570;2023-04-01T15:40:58;1.02;;;0.50;;
78426;SDS011;67722;50.204;8.570;2023-04-01T15:43:40;0.40;;;0.20;;
78426;SDS011;67722;50.204;8.570;2023-04-01T15:46:29;0.43;;;0.17;;
78426;SDS011;67722;50.204;8.570;2023-04-01T15:51:41;0.70;;;0.23;;
78426;SDS011;67722;50.204;8.570;2023-04-01T16:13:42;0.40;;;0.30;;
78426;SDS011;67722;50.204;8.570;2023-04-01T16:19:08;1.02;;;0.65;;
78426;SDS011;67722;50.204;8.570;2023-04-01T16:21:53;0.65;;;0.20;;
78426;SDS011;67722;50.204;8.570;2023-04-01T16:27:30;0.22;;;0.13;;
78426;SDS011;67722;50.204;8.570;2023-04-01T16:33:01;1.35;;;0.50;;
78426;SDS011;67722;50.204;8.570;2023-04-01T16:35:31;0.88;;;0.20;;
78426;SDS011;67722;50.204;8.570;2023-04-01T16:40:43;0.50;;;0.20;;
78426;SDS011;67722;50.204;8.570;2023-04-01T16:48:20;0.40;;;0.10;;
78426;SDS011;67722;50.204;8.570;2023-04-01T16:50:53;0.40;;;0.10;;
78426;SDS011;67722;50.204;8.570;2023-04-01T16:53:36;0.28;;;0.20;;
78426;SDS011;67722;50.204;8.570;2023-04-01T16:56:27;1.80;;;0.10;;
78426;SDS011;67722;50.204;8.570;2023-04-01T16:59:06;1.65;;;1.13;;
78426;SDS011;67722;50.204;8.570;2023-04-01T17:04:30;0.38;;;0.20;;
78426;SDS011;67722;50.204;8.570;2023-04-01T17:22:47;0.80;;;0.40;;
78426;SDS011;67722;50.204;8.570;2023-04-01T17:31:20;0.50;;;0.25;;
78426;SDS011;67722;50.204;8.570;2023-04-01T17:42:22;0.75;;;0.40;;
78426;SDS011;67722;50.204;8.570;2023-04-01T17:45:02;0.65;;;0.22;;
78426;SDS011;67722;50.204;8.570;2023-04-01T17:55:50;1.00;;;0.52;;
78426;SDS011;67722;50.204;8.570;2023-04-01T17:58:39;0.30;;;0.13;;
78426;SDS011;67722;50.204;8.570;2023-04-01T18:01:35;1.45;;;0.57;;
78426;SDS011;67722;50.204;8.570;2023-04-01T18:04:17;0.70;;;0.40;;
78426;SDS011;67722;50.204;8.570;2023-04-01T18:12:42;0.38;;;0.20;;
78426;SDS011;67722;50.204;8.570;2023-04-01T18:26:47;0.60;;;0.20;;
78426;SDS011;67722;50.204;8.570;2023-04-01T18:37:30;0.68;;;0.20;;
78426;SDS011;67722;50.204;8.570;2023-04-01T18:45:28;1.88;;;0.38;;
78426;SDS011;67722;50.204;8.570;2023-04-01T18:48:15;3.40;;;0.30;;
78426;SDS011;67722;50.204;8.570;2023-04-01T18:56:40;1.00;;;0.50;;
78426;SDS011;67722;50.204;8.570;2023-04-01T18:59:11;1.17;;;0.40;;
78426;SDS011;67722;50.204;8.570;2023-04-01T19:05:09;0.77;;;0.32;;
78426;SDS011;67722;50.204;8.570;2023-04-01T19:13:00;3.03;;;2.05;;
78426;SDS011;67722;50.204;8.570;2023-04-01T19:18:14;1.15;;;0.85;;
78426;SDS011;67722;50.204;8.570;2023-04-01T19:20:46;1.92;;;1.23;;
78426;SDS011;67722;50.204;8.570;2023-04-01T19:23:34;2.60;;;0.70;;
78426;SDS011;67722;50.204;8.570;2023-04-01T19:26:28;1.60;;;0.90;;
78426;SDS011;67722;50.204;8.570;2023-04-01T19:40:33;1.00;;;0.60;;
78426;SDS011;67722;50.204;8.570;2023-04-01T19:43:03;1.30;;;0.52;;
78426;SDS011;67722;50.204;8.570;2023-04-01T19:46:14;2.13;;;0.60;;
78426;SDS011;67722;50.204;8.570;2023-04-01T20:14:59;2.10;;;1.50;;
78426;SDS011;67722;50.204;8.570;2023-04-01T20:28:05;3.75;;;2.05;;
78426;SDS011;67722;50.204;8.570;2023-04-01T20:33:21;3.83;;;3.45;;
78426;SDS011;67722;50.204;8.570;2023-04-01T20:53:01;7.00;;;3.08;;
78426;SDS011;67722;50.204;8.570;2023-04-01T20:58:16;5.28;;;2.80;;
78426;SDS011;67722;50.204;8.570;2023-04-01T21:38:36;4.88;;;3.10;;
78426;SDS011;67722;50.204;8.570;2023-04-01T22:00:48;3.60;;;2.30;;
78426;SDS011;67722;50.204;8.570;2023-04-01T22:17:21;5.03;;;2.90;;
78426;SDS011;67722;50.204;8.570;2023-04-01T22:30:47;4.70;;;3.53;;
78426;SDS011;67722;50.204;8.570;2023-04-01T22:33:23;6.47;;;3.90;;
78426;SDS011;67722;50.204;8.570;2023-04-01T22:45:04;5.85;;;3.17;;
78426;SDS011;67722;50.204;8.570;2023-04-01T22:49:53;5.07;;;3.10;;
78426;SDS011;67722;50.204;8.570;2023-04-01T22:55:38;5.78;;;3.10;;
78426;SDS011;67722;50.204;8.570;2023-04-01T22:58:00;4.75;;;3.40;;
78426;SDS011;67722;50.204;8.570;2023-04-01T23:00:43;6.22;;;3.85;;
78426;SDS011;67722;50.204;8.570;2023-04-01T23:06:00;5.75;;;3.72;;
78426;SDS011;67722;50.204;8.570;2023-04-01T23:10:58;5.72;;;3.08;;
78426;SDS011;67722;50.204;8.570;2023-04-01T23:13:49;6.45;;;3.92;;
78426;SDS011;67722;50.204;8.570;2023-04-01T23:16:18;4.82;;;3.22;;
78426;SDS011;67722;50.204;8.570;2023-04-01T23:18:51;5.05;;;3.72;;
78426;SDS011;67722;50.204;8.570;2023-04-01T23:26:55;3.70;;;2.67;;
78426;SDS011;67722;50.204;8.570;2023-04-01T23:29:28;4.70;;;2.97;;
78426;SDS011;67722;50.204;8.570;2023-04-01T23:31:57;5.43;;;2.95;;
78426;SDS011;67722;50.204;8.570;2023-04-01T23:34:25;5.88;;;3.53;;
78426;SDS011;67722;50.204;8.570;2023-04-01T23:36:53;4.15;;;2.78;;
78426;SDS011;67722;50.204;8.570;2023-04-01T23:41:49;5.20;;;3.05;;
78426;SDS011;67722;50.204;8.570;2023-04-01T23:44:16;4.40;;;3.17;;
78426;SDS011;67722;50.204;8.570;2023-04-01T23:46:42;5.47;;;3.22;;
78426;SDS011;67722;50.204;8.570;2023-04-01T23:49:30;3.80;;;2.65;;
78426;SDS011;67722;50.204;8.570;2023-04-01T23:52:02;3.60;;;2.47;;
78426;SDS011;67722;50.204;8.570;2023-04-01T23:56:58;5.10;;;3.00;;
